This is the latest recevied weather packets stored in our database for station/object K5IDL. If no packets are shown the sender has not sent any weather packets the latest 1 day(s).
| Time | Temp. | Humidity | Pressure | Rain* | Wind** | Luminosity | Snow |
|---|---|---|---|---|---|---|---|
| 1778014547 | 31.67° C | 58% | 1005 hPa | 0 mm | 0 m/s | 89 W/m² | - |
| 1778014244 | 31.67° C | 58% | 1005.3 hPa | 0 mm | 1.34 m/s, 271° | 101 W/m² | - |
| 1778013941 | 31.67° C | 59% | 1005.4 hPa | 0 mm | 0 m/s | 102 W/m² | - |
| 1778013639 | 31.67° C | 58% | 1005.1 hPa | 0 mm | 0.45 m/s, 272° | 77 W/m² | - |
| 1778013335 | 31.67° C | 59% | 1005.6 hPa | 0 mm | 0.89 m/s, 308° | 113 W/m² | - |
| 1778013032 | 31.67° C | 58% | 1005.5 hPa | 0 mm | 0 m/s | 118 W/m² | - |
| 1778012728 | 31.11° C | 60% | 1005.6 hPa | 0 mm | 0 m/s | 137 W/m² | - |
| 1778012424 | 31.67° C | 59% | 1005.4 hPa | 0 mm | 0.45 m/s, 331° | 116 W/m² | - |
| 1778012122 | 31.11° C | 59% | 1005.5 hPa | 0 mm | 0.89 m/s, 317° | 158 W/m² | - |
| 1778011819 | 31.11° C | 58% | 1005.4 hPa | 0 mm | 0 m/s | 98 W/m² | - |
| 1778011517 | 31.67° C | 59% | 1005.4 hPa | 0 mm | 0 m/s | 175 W/m² | - |
| 1778011213 | 31.11° C | 59% | 1005.5 hPa | 0 mm | 1.34 m/s, 115° | 260 W/m² | - |
| 1778010909 | 31.11° C | 60% | 1005.7 hPa | 0 mm | 0.45 m/s, 267° | 257 W/m² | - |
| 1778010607 | 31.11° C | 57% | 1005.5 hPa | 0 mm | 0.89 m/s, 188° | 152 W/m² | - |
| 1778010304 | 31.11° C | 60% | 1005.8 hPa | 0 mm | 0.45 m/s, 328° | 225 W/m² | - |
| 1778010004 | 31.11° C | 58% | 1005.8 hPa | 0 mm | 0.45 m/s, 223° | 270 W/m² | - |
| 1778009702 | 31.11° C | 60% | 1005.6 hPa | 0 mm | 0.45 m/s, 309° | 451 W/m² | - |
| 1778009399 | 31.11° C | 60% | 1005.6 hPa | 0 mm | 0.89 m/s, 107° | 230 W/m² | - |
| 1778009098 | 30.56° C | 61% | 1005.6 hPa | 0 mm | 0.45 m/s, 261° | 355 W/m² | - |
| 1778008795 | 30.56° C | 62% | 1005.8 hPa | 0 mm | 0.89 m/s, 321° | 633 W/m² | - |
| 1778008493 | 30.56° C | 60% | 1005.6 hPa | 0 mm | 0.89 m/s, 63° | 696 W/m² | - |
| 1778008190 | 30° C | 62% | 1005.6 hPa | 0 mm | 0.45 m/s, 315° | 626 W/m² | - |
| 1778007885 | 29.44° C | 64% | 1005.8 hPa | 0 mm | 0 m/s | 472 W/m² | - |
| 1778007581 | 30° C | 64% | 1005.8 hPa | 0 mm | 0.45 m/s, 300° | 290 W/m² | - |
| 1778007278 | 30° C | 64% | 1005.6 hPa | 0 mm | 0.45 m/s, 28° | 297 W/m² | - |
* Rain latest hour (hover to see other rain measurements)
** Current wind speed in m/s (hover to see current wind gust speed)